Huvudsida
METAR-TAF:

METAR-TAF

Flygplatser :

Capo Bellavista

Tortolì, Italien

latitud: 39-56N, longitud: 009-43E, höjd: 138 m

Aktuellt väderrapport

Denna rapport gjordes för 1 timme och 39 minuter sedan, klockan 05:55 UTC
Vind 14 kt från väst/sydväst
Temperatur 10°C
Fuktighet 71%
Tryck 1007 hPa
Sikt 10 km eller mer
Få moln på en höjd av 3000 ft

METAR: LIEB 250555Z 25014KT 9999 FEW030 10/05 Q1007 RMK BKN SCT070 QUK / QUL / VIS MAR 30 KM MON INVIS VIS MIN 9999

Tid: 08:34 (07:34 UTC)


TAF: saknas

Aktuella väderrapporter och prognoser från 4000 flygplatser (METAR- och TAF-rapporter).

De tillgängliga stationerna syns som gula och röda prickar på kartan.

För musen över prickarna för att se namnen på stationerna.

Klicka sedan för att få väderrapporter och prognoser.

För att ändra kartan: Klicka på de gröna knapparna med ett svart kors på för att zooma in; den gröna knappen med ett streck på för att zooma ut; eller på de gröna pilarna för angränsande kartor.


METAR-TAF: